sensor_id;sensor_type;location;lat;lon;timestamp;pressure;altitude;pressure_sealevel;temperature;humidity
4085;BME280;2057;50.858;6.572;2022-10-04T00:00:24;101107.88;;;9.90;100.00
4085;BME280;2057;50.858;6.572;2022-10-04T00:02:50;101118.75;;;10.02;100.00
4085;BME280;2057;50.858;6.572;2022-10-04T00:05:17;101107.53;;;10.12;100.00
4085;BME280;2057;50.858;6.572;2022-10-04T00:07:49;101118.09;;;10.05;100.00
4085;BME280;2057;50.858;6.572;2022-10-04T00:10:22;101119.53;;;10.01;100.00
4085;BME280;2057;50.858;6.572;2022-10-04T00:12:56;101102.88;;;10.05;100.00
4085;BME280;2057;50.858;6.572;2022-10-04T00:15:35;101110.97;;;9.99;100.00
4085;BME280;2057;50.858;6.572;2022-10-04T00:25:50;101096.91;;;10.33;100.00
4085;BME280;2057;50.858;6.572;2022-10-04T00:31:14;101087.44;;;10.30;100.00
4085;BME280;2057;50.858;6.572;2022-10-04T00:33:47;101091.81;;;10.33;100.00
4085;BME280;2057;50.858;6.572;2022-10-04T00:44:37;101082.97;;;10.26;100.00
4085;BME280;2057;50.858;6.572;2022-10-04T00:47:52;101085.97;;;10.34;100.00
4085;BME280;2057;50.858;6.572;2022-10-04T00:50:39;101079.91;;;10.32;100.00
4085;BME280;2057;50.858;6.572;2022-10-04T00:53:40;101082.72;;;10.36;100.00
4085;BME280;2057;50.858;6.572;2022-10-04T00:56:11;101082.56;;;10.33;100.00
4085;BME280;2057;50.858;6.572;2022-10-04T01:01:26;101097.94;;;10.36;100.00
4085;BME280;2057;50.858;6.572;2022-10-04T01:03:59;101095.41;;;10.50;100.00
4085;BME280;2057;50.858;6.572;2022-10-04T01:06:27;101094.66;;;10.38;100.00
4085;BME280;2057;50.858;6.572;2022-10-04T01:08:55;101087.63;;;10.33;100.00
4085;BME280;2057;50.858;6.572;2022-10-04T01:11:28;101083.53;;;10.35;100.00
4085;BME280;2057;50.858;6.572;2022-10-04T01:16:27;101092.25;;;10.39;100.00
4085;BME280;2057;50.858;6.572;2022-10-04T01:18:54;101088.56;;;10.49;100.00
4085;BME280;2057;50.858;6.572;2022-10-04T01:21:30;101083.31;;;10.46;100.00
4085;BME280;2057;50.858;6.572;2022-10-04T01:31:39;101078.75;;;10.40;100.00
4085;BME280;2057;50.858;6.572;2022-10-04T01:34:06;101080.19;;;10.36;100.00
4085;BME280;2057;50.858;6.572;2022-10-04T01:36:33;101070.84;;;10.35;100.00
4085;BME280;2057;50.858;6.572;2022-10-04T01:38:59;101071.72;;;10.36;100.00
4085;BME280;2057;50.858;6.572;2022-10-04T01:41:45;101069.66;;;10.30;100.00
4085;BME280;2057;50.858;6.572;2022-10-04T01:44:34;101073.00;;;10.29;100.00
4085;BME280;2057;50.858;6.572;2022-10-04T01:47:07;101069.50;;;10.27;100.00
4085;BME280;2057;50.858;6.572;2022-10-04T01:49:36;101066.09;;;10.27;100.00
4085;BME280;2057;50.858;6.572;2022-10-04T01:52:08;101061.84;;;10.12;100.00
4085;BME280;2057;50.858;6.572;2022-10-04T01:54:47;101059.41;;;10.14;100.00
4085;BME280;2057;50.858;6.572;2022-10-04T01:57:26;101063.41;;;10.10;100.00
4085;BME280;2057;50.858;6.572;2022-10-04T02:00:08;101067.63;;;10.10;100.00
4085;BME280;2057;50.858;6.572;2022-10-04T02:05:40;101069.59;;;10.00;100.00
4085;BME280;2057;50.858;6.572;2022-10-04T02:08:11;101064.59;;;10.02;100.00
4085;BME280;2057;50.858;6.572;2022-10-04T02:10:41;101059.81;;;10.07;100.00
4085;BME280;2057;50.858;6.572;2022-10-04T02:13:09;101054.53;;;10.03;100.00
4085;BME280;2057;50.858;6.572;2022-10-04T02:15:36;101059.69;;;9.90;100.00
4085;BME280;2057;50.858;6.572;2022-10-04T02:18:09;101051.94;;;9.88;100.00
4085;BME280;2057;50.858;6.572;2022-10-04T02:20:38;101045.31;;;9.91;100.00
4085;BME280;2057;50.858;6.572;2022-10-04T02:23:05;101035.94;;;10.03;100.00
4085;BME280;2057;50.858;6.572;2022-10-04T02:25:30;101040.94;;;9.88;100.00
4085;BME280;2057;50.858;6.572;2022-10-04T02:27:56;101042.00;;;9.92;100.00
4085;BME280;2057;50.858;6.572;2022-10-04T02:30:22;101043.81;;;9.79;100.00
4085;BME280;2057;50.858;6.572;2022-10-04T02:32:52;101042.56;;;9.72;100.00
4085;BME280;2057;50.858;6.572;2022-10-04T02:35:32;101036.59;;;9.72;100.00
4085;BME280;2057;50.858;6.572;2022-10-04T02:40:46;101020.44;;;9.70;100.00
4085;BME280;2057;50.858;6.572;2022-10-04T02:43:20;101021.28;;;9.70;100.00
4085;BME280;2057;50.858;6.572;2022-10-04T02:45:51;101020.91;;;9.64;100.00
4085;BME280;2057;50.858;6.572;2022-10-04T02:48:29;101011.22;;;9.72;100.00
4085;BME280;2057;50.858;6.572;2022-10-04T02:51:00;101006.28;;;9.73;100.00
4085;BME280;2057;50.858;6.572;2022-10-04T02:53:49;101010.59;;;9.61;100.00
4085;BME280;2057;50.858;6.572;2022-10-04T02:56:17;101008.41;;;9.67;100.00
4085;BME280;2057;50.858;6.572;2022-10-04T02:58:43;101009.22;;;9.66;100.00
4085;BME280;2057;50.858;6.572;2022-10-04T03:01:26;101000.13;;;9.70;100.00
4085;BME280;2057;50.858;6.572;2022-10-04T03:03:53;101004.94;;;9.65;100.00
4085;BME280;2057;50.858;6.572;2022-10-04T03:06:20;100992.91;;;9.63;100.00
4085;BME280;2057;50.858;6.572;2022-10-04T03:08:54;100997.63;;;9.56;100.00
4085;BME280;2057;50.858;6.572;2022-10-04T03:11:22;100993.03;;;9.51;100.00
4085;BME280;2057;50.858;6.572;2022-10-04T03:13:51;100993.34;;;9.55;100.00
4085;BME280;2057;50.858;6.572;2022-10-04T03:16:18;100997.63;;;9.56;100.00
4085;BME280;2057;50.858;6.572;2022-10-04T03:18:45;100990.09;;;9.58;100.00
4085;BME280;2057;50.858;6.572;2022-10-04T03:21:14;100989.31;;;9.59;100.00
4085;BME280;2057;50.858;6.572;2022-10-04T03:23:41;100976.66;;;9.59;100.00
4085;BME280;2057;50.858;6.572;2022-10-04T03:26:30;100966.63;;;9.61;100.00
4085;BME280;2057;50.858;6.572;2022-10-04T03:28:57;100969.81;;;9.58;100.00
4085;BME280;2057;50.858;6.572;2022-10-04T03:31:24;100967.13;;;9.55;100.00
4085;BME280;2057;50.858;6.572;2022-10-04T03:33:54;100951.91;;;9.55;100.00
4085;BME280;2057;50.858;6.572;2022-10-04T03:36:20;100954.44;;;9.55;100.00
4085;BME280;2057;50.858;6.572;2022-10-04T03:38:48;100957.97;;;9.57;100.00
4085;BME280;2057;50.858;6.572;2022-10-04T03:41:15;100961.44;;;9.59;100.00
4085;BME280;2057;50.858;6.572;2022-10-04T03:43:47;100961.13;;;9.26;100.00
4085;BME280;2057;50.858;6.572;2022-10-04T03:46:15;100960.56;;;9.30;100.00
4085;BME280;2057;50.858;6.572;2022-10-04T03:48:48;100964.84;;;9.31;100.00
4085;BME280;2057;50.858;6.572;2022-10-04T03:51:17;100964.44;;;9.38;100.00
4085;BME280;2057;50.858;6.572;2022-10-04T03:53:46;100973.69;;;9.38;100.00
4085;BME280;2057;50.858;6.572;2022-10-04T03:56:20;100962.47;;;9.34;100.00
4085;BME280;2057;50.858;6.572;2022-10-04T03:58:49;100972.72;;;9.36;100.00
4085;BME280;2057;50.858;6.572;2022-10-04T04:09:22;100967.38;;;9.31;100.00
4085;BME280;2057;50.858;6.572;2022-10-04T04:11:50;100957.81;;;9.27;100.00
4085;BME280;2057;50.858;6.572;2022-10-04T04:14:24;100950.13;;;9.25;100.00
4085;BME280;2057;50.858;6.572;2022-10-04T04:16:52;100956.50;;;9.05;100.00
4085;BME280;2057;50.858;6.572;2022-10-04T04:19:21;100955.19;;;9.12;100.00
4085;BME280;2057;50.858;6.572;2022-10-04T04:21:52;100955.50;;;9.17;100.00
4085;BME280;2057;50.858;6.572;2022-10-04T04:24:28;100956.47;;;9.19;100.00
4085;BME280;2057;50.858;6.572;2022-10-04T04:27:00;100957.34;;;9.19;100.00
4085;BME280;2057;50.858;6.572;2022-10-04T04:29:47;100951.81;;;9.12;100.00
4085;BME280;2057;50.858;6.572;2022-10-04T04:32:24;100946.53;;;9.08;100.00
4085;BME280;2057;50.858;6.572;2022-10-04T04:35:00;100944.69;;;9.06;100.00
4085;BME280;2057;50.858;6.572;2022-10-04T04:37:35;100946.94;;;9.01;100.00
4085;BME280;2057;50.858;6.572;2022-10-04T04:40:23;100942.19;;;8.79;100.00
4085;BME280;2057;50.858;6.572;2022-10-04T04:42:49;100948.13;;;8.93;100.00
4085;BME280;2057;50.858;6.572;2022-10-04T04:45:26;100946.97;;;8.88;100.00
4085;BME280;2057;50.858;6.572;2022-10-04T04:47:56;100948.97;;;8.93;100.00
4085;BME280;2057;50.858;6.572;2022-10-04T04:50:30;100952.88;;;9.02;100.00
4085;BME280;2057;50.858;6.572;2022-10-04T04:53:16;100952.41;;;8.94;100.00
4085;BME280;2057;50.858;6.572;2022-10-04T04:55:58;100944.50;;;9.03;100.00
4085;BME280;2057;50.858;6.572;2022-10-04T04:58:27;100953.47;;;8.98;100.00
4085;BME280;2057;50.858;6.572;2022-10-04T05:01:04;100942.38;;;8.95;100.00
4085;BME280;2057;50.858;6.572;2022-10-04T05:03:30;100937.00;;;8.91;100.00
4085;BME280;2057;50.858;6.572;2022-10-04T05:05:58;100936.84;;;8.88;100.00
4085;BME280;2057;50.858;6.572;2022-10-04T05:08:29;100928.63;;;8.92;100.00
4085;BME280;2057;50.858;6.572;2022-10-04T05:11:12;100924.38;;;8.77;100.00
4085;BME280;2057;50.858;6.572;2022-10-04T05:13:48;100923.19;;;8.86;100.00
4085;BME280;2057;50.858;6.572;2022-10-04T05:16:18;100926.28;;;8.82;100.00
4085;BME280;2057;50.858;6.572;2022-10-04T05:18:46;100921.34;;;8.83;100.00
4085;BME280;2057;50.858;6.572;2022-10-04T05:21:27;100916.84;;;8.79;100.00
4085;BME280;2057;50.858;6.572;2022-10-04T05:23:57;100918.31;;;8.75;100.00
4085;BME280;2057;50.858;6.572;2022-10-04T05:26:26;100915.22;;;8.79;100.00
4085;BME280;2057;50.858;6.572;2022-10-04T05:28:54;100912.69;;;8.79;100.00
4085;BME280;2057;50.858;6.572;2022-10-04T05:34:17;100925.09;;;9.17;100.00
4085;BME280;2057;50.858;6.572;2022-10-04T05:36:56;100914.50;;;8.95;100.00
4085;BME280;2057;50.858;6.572;2022-10-04T05:39:36;100917.31;;;9.00;100.00
4085;BME280;2057;50.858;6.572;2022-10-04T05:42:23;100925.00;;;9.02;100.00
4085;BME280;2057;50.858;6.572;2022-10-04T05:44:53;100912.25;;;9.00;100.00
4085;BME280;2057;50.858;6.572;2022-10-04T05:47:20;100919.47;;;9.07;100.00
4085;BME280;2057;50.858;6.572;2022-10-04T05:49:53;100914.88;;;9.02;100.00
4085;BME280;2057;50.858;6.572;2022-10-04T06:00:57;100916.25;;;9.10;100.00
4085;BME280;2057;50.858;6.572;2022-10-04T06:05:54;100924.81;;;9.12;100.00
4085;BME280;2057;50.858;6.572;2022-10-04T06:24:20;100920.06;;;9.03;100.00
4085;BME280;2057;50.858;6.572;2022-10-04T06:26:53;100924.53;;;9.07;100.00
4085;BME280;2057;50.858;6.572;2022-10-04T06:29:31;100922.19;;;9.10;100.00
4085;BME280;2057;50.858;6.572;2022-10-04T06:38:14;100916.34;;;9.12;100.00
4085;BME280;2057;50.858;6.572;2022-10-04T06:46:18;100907.50;;;9.33;100.00
4085;BME280;2057;50.858;6.572;2022-10-04T07:08:01;100916.88;;;9.63;100.00
4085;BME280;2057;50.858;6.572;2022-10-04T07:10:49;100927.41;;;9.69;100.00
4085;BME280;2057;50.858;6.572;2022-10-04T07:15:59;100924.19;;;9.86;100.00
4085;BME280;2057;50.858;6.572;2022-10-04T07:18:38;100924.28;;;9.88;100.00
4085;BME280;2057;50.858;6.572;2022-10-04T07:21:14;100922.19;;;9.96;100.00
4085;BME280;2057;50.858;6.572;2022-10-04T07:23:49;100924.19;;;10.01;100.00
4085;BME280;2057;50.858;6.572;2022-10-04T07:26:33;100919.03;;;10.00;100.00
4085;BME280;2057;50.858;6.572;2022-10-04T07:29:11;100916.69;;;10.03;100.00
4085;BME280;2057;50.858;6.572;2022-10-04T07:31:52;100914.25;;;10.04;100.00
4085;BME280;2057;50.858;6.572;2022-10-04T07:34:28;100915.81;;;10.02;100.00
4085;BME280;2057;50.858;6.572;2022-10-04T07:36:58;100914.31;;;10.06;100.00
4085;BME280;2057;50.858;6.572;2022-10-04T07:41:58;100917.22;;;10.12;100.00
4085;BME280;2057;50.858;6.572;2022-10-04T07:44:42;100918.34;;;10.02;100.00
4085;BME280;2057;50.858;6.572;2022-10-04T07:47:18;100918.59;;;10.07;100.00
4085;BME280;2057;50.858;6.572;2022-10-04T07:49:45;100919.13;;;10.16;100.00
4085;BME280;2057;50.858;6.572;2022-10-04T07:55:16;100922.25;;;10.41;100.00
4085;BME280;2057;50.858;6.572;2022-10-04T07:58:01;100928.59;;;10.34;100.00
4085;BME280;2057;50.858;6.572;2022-10-04T08:01:01;100929.56;;;10.36;100.00
4085;BME280;2057;50.858;6.572;2022-10-04T08:15:12;100926.94;;;10.64;100.00
4085;BME280;2057;50.858;6.572;2022-10-04T08:18:04;100911.25;;;10.72;100.00
4085;BME280;2057;50.858;6.572;2022-10-04T08:20:47;100918.06;;;10.88;100.00
4085;BME280;2057;50.858;6.572;2022-10-04T08:23:28;100918.31;;;10.92;100.00
4085;BME280;2057;50.858;6.572;2022-10-04T08:48:39;100902.44;;;11.77;100.00
4085;BME280;2057;50.858;6.572;2022-10-04T09:10:33;100900.91;;;12.50;100.00
4085;BME280;2057;50.858;6.572;2022-10-04T09:15:52;100902.06;;;12.75;100.00
4085;BME280;2057;50.858;6.572;2022-10-04T09:18:37;100906.22;;;12.73;100.00
4085;BME280;2057;50.858;6.572;2022-10-04T09:26:44;100886.72;;;13.11;100.00
4085;BME280;2057;50.858;6.572;2022-10-04T09:29:32;100888.91;;;13.22;100.00
4085;BME280;2057;50.858;6.572;2022-10-04T09:43:01;100872.50;;;13.75;100.00
4085;BME280;2057;50.858;6.572;2022-10-04T09:48:44;100880.75;;;13.89;99.69
4085;BME280;2057;50.858;6.572;2022-10-04T09:51:35;100874.66;;;14.07;99.99
4085;BME280;2057;50.858;6.572;2022-10-04T09:54:28;100881.09;;;14.18;98.66
4085;BME280;2057;50.858;6.572;2022-10-04T09:57:47;100879.66;;;14.25;98.42
4085;BME280;2057;50.858;6.572;2022-10-04T10:00:07;100872.66;;;14.42;96.97
4085;BME280;2057;50.858;6.572;2022-10-04T10:30:23;100861.47;;;15.29;92.31
4085;BME280;2057;50.858;6.572;2022-10-04T10:33:15;100859.59;;;15.25;90.74
4085;BME280;2057;50.858;6.572;2022-10-04T10:36:10;100867.88;;;15.18;89.13
4085;BME280;2057;50.858;6.572;2022-10-04T10:41:43;100865.00;;;15.33;88.89
4085;BME280;2057;50.858;6.572;2022-10-04T10:52:07;100863.25;;;15.56;88.70
4085;BME280;2057;50.858;6.572;2022-10-04T11:00:13;100860.44;;;15.98;84.88
4085;BME280;2057;50.858;6.572;2022-10-04T11:05:32;100849.59;;;16.07;85.60
4085;BME280;2057;50.858;6.572;2022-10-04T11:19:25;100836.63;;;16.57;81.72
4085;BME280;2057;50.858;6.572;2022-10-04T11:28:19;100821.03;;;16.80;79.90
4085;BME280;2057;50.858;6.572;2022-10-04T11:45:29;100803.31;;;17.18;83.44
4085;BME280;2057;50.858;6.572;2022-10-04T11:48:30;100796.56;;;17.20;82.29
4085;BME280;2057;50.858;6.572;2022-10-04T11:53:51;100795.59;;;17.50;81.82
4085;BME280;2057;50.858;6.572;2022-10-04T11:59:36;100790.13;;;17.71;77.86
4085;BME280;2057;50.858;6.572;2022-10-04T12:05:31;100789.56;;;17.83;78.60
4085;BME280;2057;50.858;6.572;2022-10-04T12:11:28;100795.81;;;17.58;79.06
4085;BME280;2057;50.858;6.572;2022-10-04T12:25:07;100787.06;;;17.86;73.34
4085;BME280;2057;50.858;6.572;2022-10-04T12:28:03;100793.16;;;18.27;73.99
4085;BME280;2057;50.858;6.572;2022-10-04T12:33:20;100783.72;;;17.91;73.77
4085;BME280;2057;50.858;6.572;2022-10-04T12:36:19;100784.09;;;18.05;73.98
4085;BME280;2057;50.858;6.572;2022-10-04T12:44:42;100754.16;;;18.46;70.86
4085;BME280;2057;50.858;6.572;2022-10-04T12:55:46;100755.16;;;18.96;71.51
4085;BME280;2057;50.858;6.572;2022-10-04T13:06:23;100734.81;;;19.08;70.53
4085;BME280;2057;50.858;6.572;2022-10-04T13:08:58;100738.22;;;19.07;69.37
4085;BME280;2057;50.858;6.572;2022-10-04T13:11:49;100736.63;;;19.14;69.86
4085;BME280;2057;50.858;6.572;2022-10-04T13:15:22;100738.31;;;19.13;70.56
4085;BME280;2057;50.858;6.572;2022-10-04T13:24:03;100735.09;;;19.25;70.44
4085;BME280;2057;50.858;6.572;2022-10-04T13:26:50;100728.41;;;19.35;68.85
4085;BME280;2057;50.858;6.572;2022-10-04T13:50:25;100707.66;;;20.46;64.92
4085;BME280;2057;50.858;6.572;2022-10-04T13:56:02;100700.59;;;20.29;60.60
4085;BME280;2057;50.858;6.572;2022-10-04T14:09:59;100683.84;;;20.70;60.31
4085;BME280;2057;50.858;6.572;2022-10-04T14:12:44;100673.63;;;20.78;55.95
4085;BME280;2057;50.858;6.572;2022-10-04T14:23:38;100657.88;;;21.50;58.33
4085;BME280;2057;50.858;6.572;2022-10-04T14:43:56;100653.22;;;22.54;52.21
4085;BME280;2057;50.858;6.572;2022-10-04T14:52:18;100649.56;;;22.01;54.28
4085;BME280;2057;50.858;6.572;2022-10-04T14:54:52;100650.56;;;22.37;53.68
4085;BME280;2057;50.858;6.572;2022-10-04T15:00:22;100648.06;;;22.82;52.30
4085;BME280;2057;50.858;6.572;2022-10-04T15:10:58;100629.94;;;22.65;51.81
4085;BME280;2057;50.858;6.572;2022-10-04T15:16:32;100623.03;;;22.58;52.70
4085;BME280;2057;50.858;6.572;2022-10-04T15:19:31;100629.97;;;22.85;53.29
4085;BME280;2057;50.858;6.572;2022-10-04T15:22:08;100630.81;;;22.59;54.20
4085;BME280;2057;50.858;6.572;2022-10-04T15:24:45;100626.38;;;22.22;53.17
4085;BME280;2057;50.858;6.572;2022-10-04T15:27:36;100631.66;;;22.47;53.60
4085;BME280;2057;50.858;6.572;2022-10-04T15:33:07;100638.59;;;23.19;50.23
4085;BME280;2057;50.858;6.572;2022-10-04T15:38:53;100642.94;;;23.19;53.26
4085;BME280;2057;50.858;6.572;2022-10-04T15:47:22;100642.91;;;23.16;51.80
4085;BME280;2057;50.858;6.572;2022-10-04T15:49:41;100643.75;;;22.95;51.92
4085;BME280;2057;50.858;6.572;2022-10-04T15:55:18;100640.31;;;22.86;55.47
4085;BME280;2057;50.858;6.572;2022-10-04T16:00:21;100633.41;;;23.38;53.48
4085;BME280;2057;50.858;6.572;2022-10-04T16:06:09;100633.41;;;23.41;56.15
4085;BME280;2057;50.858;6.572;2022-10-04T16:17:26;100641.13;;;22.45;59.70
4085;BME280;2057;50.858;6.572;2022-10-04T16:20:15;100634.84;;;21.90;60.93
4085;BME280;2057;50.858;6.572;2022-10-04T16:25:48;100638.78;;;21.28;68.03
4085;BME280;2057;50.858;6.572;2022-10-04T16:31:20;100646.13;;;20.80;65.55
4085;BME280;2057;50.858;6.572;2022-10-04T16:33:52;100650.16;;;20.58;67.49
4085;BME280;2057;50.858;6.572;2022-10-04T16:36:46;100656.78;;;20.32;68.19
4085;BME280;2057;50.858;6.572;2022-10-04T16:42:17;100647.16;;;20.19;68.41
4085;BME280;2057;50.858;6.572;2022-10-04T16:44:58;100648.59;;;19.94;72.11
4085;BME280;2057;50.858;6.572;2022-10-04T16:47:30;100643.38;;;19.92;72.45
4085;BME280;2057;50.858;6.572;2022-10-04T16:49:58;100644.06;;;19.80;72.04
4085;BME280;2057;50.858;6.572;2022-10-04T16:55:51;100645.47;;;19.56;78.27
4085;BME280;2057;50.858;6.572;2022-10-04T17:03:57;100644.56;;;18.98;80.03
4085;BME280;2057;50.858;6.572;2022-10-04T17:06:46;100645.00;;;18.76;81.48
4085;BME280;2057;50.858;6.572;2022-10-04T17:14:48;100646.88;;;18.39;80.99
4085;BME280;2057;50.858;6.572;2022-10-04T17:17:41;100664.31;;;18.11;81.44
4085;BME280;2057;50.858;6.572;2022-10-04T17:28:43;100669.28;;;18.03;81.93
4085;BME280;2057;50.858;6.572;2022-10-04T17:31:23;100664.66;;;17.50;83.02
4085;BME280;2057;50.858;6.572;2022-10-04T17:47:26;100685.53;;;16.94;87.33
4085;BME280;2057;50.858;6.572;2022-10-04T17:50:40;100690.16;;;16.45;90.13
4085;BME280;2057;50.858;6.572;2022-10-04T17:53:32;100679.09;;;16.47;90.15
4085;BME280;2057;50.858;6.572;2022-10-04T17:56:28;100683.50;;;16.84;88.85
4085;BME280;2057;50.858;6.572;2022-10-04T17:58:56;100683.88;;;16.96;87.19
4085;BME280;2057;50.858;6.572;2022-10-04T18:01:25;100678.81;;;16.67;88.47
4085;BME280;2057;50.858;6.572;2022-10-04T18:04:15;100685.53;;;16.31;88.59
4085;BME280;2057;50.858;6.572;2022-10-04T18:07:03;100682.41;;;16.42;88.47
4085;BME280;2057;50.858;6.572;2022-10-04T18:09:42;100688.72;;;16.24;88.75
4085;BME280;2057;50.858;6.572;2022-10-04T18:12:33;100692.94;;;15.93;89.14
4085;BME280;2057;50.858;6.572;2022-10-04T18:15:09;100694.06;;;15.76;91.09
4085;BME280;2057;50.858;6.572;2022-10-04T18:17:46;100699.94;;;15.72;90.54
4085;BME280;2057;50.858;6.572;2022-10-04T18:22:48;100705.34;;;15.81;89.74
4085;BME280;2057;50.858;6.572;2022-10-04T18:25:17;100709.75;;;15.85;89.11
4085;BME280;2057;50.858;6.572;2022-10-04T18:33:18;100704.13;;;15.97;87.52
4085;BME280;2057;50.858;6.572;2022-10-04T18:38:39;100706.53;;;15.65;87.75
4085;BME280;2057;50.858;6.572;2022-10-04T18:48:51;100723.09;;;15.49;89.75
4085;BME280;2057;50.858;6.572;2022-10-04T18:51:29;100727.53;;;15.29;90.27
4085;BME280;2057;50.858;6.572;2022-10-04T18:54:35;100733.69;;;15.34;90.99
4085;BME280;2057;50.858;6.572;2022-10-04T19:00:10;100733.84;;;15.39;89.83
4085;BME280;2057;50.858;6.572;2022-10-04T19:06:12;100748.19;;;15.35;89.98
4085;BME280;2057;50.858;6.572;2022-10-04T19:11:08;100754.56;;;15.46;89.46
4085;BME280;2057;50.858;6.572;2022-10-04T19:13:56;100752.41;;;15.59;89.56
4085;BME280;2057;50.858;6.572;2022-10-04T19:21:49;100743.16;;;15.36;89.70
4085;BME280;2057;50.858;6.572;2022-10-04T19:27:02;100732.47;;;15.23;91.07
4085;BME280;2057;50.858;6.572;2022-10-04T19:41:12;100714.31;;;14.66;94.45
4085;BME280;2057;50.858;6.572;2022-10-04T19:43:51;100714.16;;;14.63;94.77
4085;BME280;2057;50.858;6.572;2022-10-04T19:46:27;100713.44;;;14.43;94.74
4085;BME280;2057;50.858;6.572;2022-10-04T19:48:55;100712.84;;;14.26;97.18
4085;BME280;2057;50.858;6.572;2022-10-04T19:54:12;100727.22;;;14.24;97.36
4085;BME280;2057;50.858;6.572;2022-10-04T19:56:52;100729.88;;;14.27;97.57
4085;BME280;2057;50.858;6.572;2022-10-04T19:59:39;100723.56;;;14.17;97.96
4085;BME280;2057;50.858;6.572;2022-10-04T20:02:10;100724.53;;;14.21;98.12
4085;BME280;2057;50.858;6.572;2022-10-04T20:04:36;100730.94;;;14.32;98.47
4085;BME280;2057;50.858;6.572;2022-10-04T20:07:17;100726.41;;;14.48;97.36
4085;BME280;2057;50.858;6.572;2022-10-04T20:09:52;100724.88;;;14.53;96.95
4085;BME280;2057;50.858;6.572;2022-10-04T20:12:37;100721.31;;;14.49;96.47
4085;BME280;2057;50.858;6.572;2022-10-04T20:17:43;100718.94;;;14.30;97.11
4085;BME280;2057;50.858;6.572;2022-10-04T20:20:13;100719.66;;;14.27;96.90
4085;BME280;2057;50.858;6.572;2022-10-04T20:30:59;100736.31;;;13.94;97.47
4085;BME280;2057;50.858;6.572;2022-10-04T20:36:04;100740.25;;;13.65;99.94
4085;BME280;2057;50.858;6.572;2022-10-04T20:38:52;100737.34;;;13.56;100.00
4085;BME280;2057;50.858;6.572;2022-10-04T20:43:54;100735.59;;;13.35;100.00
4085;BME280;2057;50.858;6.572;2022-10-04T20:46:22;100725.88;;;13.46;100.00
4085;BME280;2057;50.858;6.572;2022-10-04T20:48:48;100727.66;;;13.48;100.00
4085;BME280;2057;50.858;6.572;2022-10-04T20:51:16;100727.41;;;13.42;100.00
4085;BME280;2057;50.858;6.572;2022-10-04T20:53:43;100728.19;;;13.40;100.00
4085;BME280;2057;50.858;6.572;2022-10-04T20:56:18;100729.88;;;13.39;100.00
4085;BME280;2057;50.858;6.572;2022-10-04T20:58:50;100721.25;;;13.37;100.00
4085;BME280;2057;50.858;6.572;2022-10-04T21:01:27;100727.94;;;13.35;100.00
4085;BME280;2057;50.858;6.572;2022-10-04T21:04:27;100720.34;;;13.15;100.00
4085;BME280;2057;50.858;6.572;2022-10-04T21:07:21;100722.78;;;13.12;100.00
4085;BME280;2057;50.858;6.572;2022-10-04T21:09:47;100715.38;;;13.18;100.00
4085;BME280;2057;50.858;6.572;2022-10-04T21:12:36;100714.72;;;13.03;100.00
4085;BME280;2057;50.858;6.572;2022-10-04T21:17:39;100720.56;;;13.00;100.00
4085;BME280;2057;50.858;6.572;2022-10-04T21:20:12;100724.53;;;12.94;100.00
4085;BME280;2057;50.858;6.572;2022-10-04T21:22:39;100721.69;;;12.87;100.00
4085;BME280;2057;50.858;6.572;2022-10-04T21:25:26;100720.22;;;12.73;100.00
4085;BME280;2057;50.858;6.572;2022-10-04T21:27:52;100716.06;;;12.55;100.00
4085;BME280;2057;50.858;6.572;2022-10-04T21:30:17;100721.56;;;12.65;100.00
4085;BME280;2057;50.858;6.572;2022-10-04T21:32:47;100720.72;;;12.64;100.00
4085;BME280;2057;50.858;6.572;2022-10-04T21:35:12;100726.13;;;12.72;100.00
4085;BME280;2057;50.858;6.572;2022-10-04T21:37:37;100723.84;;;12.59;100.00
4085;BME280;2057;50.858;6.572;2022-10-04T21:40:04;100732.81;;;12.50;100.00
4085;BME280;2057;50.858;6.572;2022-10-04T21:42:30;100728.53;;;12.49;100.00
4085;BME280;2057;50.858;6.572;2022-10-04T21:44:55;100722.03;;;12.56;100.00
4085;BME280;2057;50.858;6.572;2022-10-04T21:47:20;100729.06;;;12.62;100.00
4085;BME280;2057;50.858;6.572;2022-10-04T21:49:49;100720.41;;;12.58;100.00
4085;BME280;2057;50.858;6.572;2022-10-04T21:52:19;100726.34;;;12.57;100.00
4085;BME280;2057;50.858;6.572;2022-10-04T21:54:45;100717.88;;;12.58;100.00
4085;BME280;2057;50.858;6.572;2022-10-04T21:57:10;100712.56;;;12.53;100.00
4085;BME280;2057;50.858;6.572;2022-10-04T21:59:36;100720.00;;;12.49;100.00
4085;BME280;2057;50.858;6.572;2022-10-04T22:02:04;100723.13;;;12.23;100.00
4085;BME280;2057;50.858;6.572;2022-10-04T22:04:31;100718.19;;;12.27;100.00
4085;BME280;2057;50.858;6.572;2022-10-04T22:06:57;100720.63;;;12.25;100.00
4085;BME280;2057;50.858;6.572;2022-10-04T22:09:22;100728.75;;;12.16;100.00
4085;BME280;2057;50.858;6.572;2022-10-04T22:11:47;100731.94;;;12.12;100.00
4085;BME280;2057;50.858;6.572;2022-10-04T22:14:13;100727.06;;;12.17;100.00
4085;BME280;2057;50.858;6.572;2022-10-04T22:16:38;100724.56;;;12.18;100.00
4085;BME280;2057;50.858;6.572;2022-10-04T22:19:04;100731.72;;;12.07;100.00
4085;BME280;2057;50.858;6.572;2022-10-04T22:21:29;100725.47;;;12.01;100.00
4085;BME280;2057;50.858;6.572;2022-10-04T22:23:55;100723.13;;;11.87;100.00
4085;BME280;2057;50.858;6.572;2022-10-04T22:26:21;100714.63;;;11.87;100.00
4085;BME280;2057;50.858;6.572;2022-10-04T22:28:49;100706.84;;;12.02;100.00
4085;BME280;2057;50.858;6.572;2022-10-04T22:31:17;100709.28;;;11.99;100.00
4085;BME280;2057;50.858;6.572;2022-10-04T22:33:44;100704.97;;;11.98;100.00
4085;BME280;2057;50.858;6.572;2022-10-04T22:36:14;100708.97;;;12.11;100.00
4085;BME280;2057;50.858;6.572;2022-10-04T22:38:56;100710.91;;;12.16;100.00
4085;BME280;2057;50.858;6.572;2022-10-04T22:41:26;100714.69;;;12.24;100.00
4085;BME280;2057;50.858;6.572;2022-10-04T22:43:55;100698.69;;;12.27;100.00
4085;BME280;2057;50.858;6.572;2022-10-04T22:46:31;100696.19;;;12.29;100.00
4085;BME280;2057;50.858;6.572;2022-10-04T22:48:58;100700.28;;;12.25;100.00
4085;BME280;2057;50.858;6.572;2022-10-04T22:51:27;100697.56;;;12.40;100.00
4085;BME280;2057;50.858;6.572;2022-10-04T22:53:53;100700.13;;;12.60;100.00
4085;BME280;2057;50.858;6.572;2022-10-04T22:56:18;100700.44;;;12.28;100.00